createdAt,value
2022-08-26T00:00:59.729Z,79.38
2022-08-26T00:03:00.834Z,78.91
2022-08-26T00:05:02.365Z,78.89
2022-08-26T00:07:03.882Z,78.97
2022-08-26T00:09:04.914Z,79.09
2022-08-26T00:11:06.150Z,78.82
2022-08-26T00:13:07.268Z,79.1
2022-08-26T00:15:08.690Z,78.77
2022-08-26T00:17:09.960Z,78.82
2022-08-26T00:19:11.507Z,78.72
2022-08-26T00:21:13.128Z,79.07
2022-08-26T00:23:14.785Z,79.02
2022-08-26T00:25:16.778Z,79.01
2022-08-26T00:27:18.307Z,79.2
2022-08-26T00:29:19.196Z,79.46
2022-08-26T00:31:20.155Z,79.61
2022-08-26T00:33:21.759Z,80.06
2022-08-26T00:35:23.387Z,80.09
2022-08-26T00:37:24.372Z,80.26
2022-08-26T00:39:26.103Z,80.14
2022-08-26T00:41:27.303Z,80.49
2022-08-26T00:43:28.368Z,80.78
2022-08-26T00:45:29.671Z,80.83
2022-08-26T00:47:30.984Z,80.76
2022-08-26T00:51:33.827Z,81.36
2022-08-26T00:53:35.140Z,81.54
2022-08-26T00:55:38.113Z,81.55
2022-08-26T00:57:37.742Z,81.27
2022-08-26T00:59:39.365Z,81.13
2022-08-26T01:01:40.719Z,81.04
2022-08-26T01:03:42.376Z,81.46
2022-08-26T01:05:44.056Z,81.2
2022-08-26T01:07:45.458Z,81.09
2022-08-26T01:09:46.620Z,81.18
2022-08-26T01:11:48.241Z,81.26
2022-08-26T01:13:49.686Z,81.28
2022-08-26T01:17:52.711Z,81.14
2022-08-26T01:19:54.189Z,81.67
2022-08-26T01:21:55.997Z,81.92
2022-08-26T01:23:57.308Z,81.44
2022-08-26T01:25:58.039Z,81.41
2022-08-26T01:27:59.009Z,82.11
2022-08-26T01:30:00.270Z,82.27
2022-08-26T01:34:02.743Z,82.13
2022-08-26T01:36:04.463Z,82.11
2022-08-26T01:38:06.181Z,82.15
2022-08-26T01:40:07.199Z,82.22
2022-08-26T01:42:10.249Z,82.52
2022-08-26T01:44:10.184Z,83
2022-08-26T01:46:11.834Z,83.41
2022-08-26T01:48:13.624Z,83.57
2022-08-26T01:50:15.642Z,83.64
2022-08-26T01:52:16.712Z,83.41
2022-08-26T01:54:18.276Z,83.85
2022-08-26T01:56:19.849Z,84.22
2022-08-26T01:58:21.088Z,83.89
2022-08-26T02:00:22.946Z,83.55
2022-08-26T02:02:24.508Z,83.24
2022-08-26T02:04:25.815Z,83.08
2022-08-26T02:06:26.936Z,83.54
2022-08-26T02:08:28.787Z,83.55
2022-08-26T02:10:30.503Z,83.38
2022-08-26T02:14:33.132Z,83.78
2022-08-26T02:16:34.143Z,83.66
2022-08-26T02:18:35.640Z,84.03
2022-08-26T02:21:20.507Z,84.02
2022-08-26T02:23:21.752Z,83.86
2022-08-26T02:25:23.155Z,83.55
2022-08-26T02:27:24.528Z,83.66
2022-08-26T02:29:25.854Z,83.87
2022-08-26T02:31:27.259Z,84.02
2022-08-26T02:33:29.073Z,84
2022-08-26T02:35:30.081Z,84.19
2022-08-26T02:37:31.022Z,84.01
2022-08-26T02:39:32.675Z,84.13
2022-08-26T02:41:34.269Z,84.24
2022-08-26T02:43:36.047Z,84.55
2022-08-26T02:45:37.382Z,84.69
2022-08-26T02:47:38.213Z,84.97
2022-08-26T02:49:40.077Z,85.14
2022-08-26T02:51:41.239Z,85.38
2022-08-26T02:53:42.789Z,85.3
2022-08-26T02:55:43.939Z,85.53
2022-08-26T02:57:45.181Z,85.6
2022-08-26T02:59:46.616Z,86.13
2022-08-26T03:01:48.205Z,85.74
2022-08-26T03:03:49.080Z,85.83
2022-08-26T03:05:50.935Z,85.37
2022-08-26T03:07:52.192Z,85.3
2022-08-26T03:09:53.793Z,85.3
2022-08-26T03:11:55.230Z,85.46
2022-08-26T03:13:56.411Z,85.56
2022-08-26T03:15:57.685Z,85.56
2022-08-26T03:17:59.508Z,85.77
2022-08-26T03:20:01.190Z,86
2022-08-26T03:22:03.061Z,86.09
2022-08-26T03:24:04.106Z,86.04
2022-08-26T03:26:05.401Z,86.14
2022-08-26T03:28:06.700Z,86.62
2022-08-26T03:30:07.953Z,86.19
2022-08-26T03:32:09.333Z,85.95
2022-08-26T03:34:11.276Z,86.33
2022-08-26T03:36:11.947Z,86.35
2022-08-26T03:38:13.686Z,86.11
2022-08-26T03:40:14.821Z,86.11
2022-08-26T03:42:16.007Z,86.4
2022-08-26T03:44:17.534Z,86.74
2022-08-26T03:46:18.645Z,86.42
2022-08-26T03:50:22.757Z,86.96
2022-08-26T03:52:22.272Z,87.19
2022-08-26T03:54:23.915Z,87.62
2022-08-26T03:56:25.059Z,87.8
2022-08-26T03:58:26.484Z,88.08
2022-08-26T04:02:28.987Z,87.92
2022-08-26T04:04:30.625Z,88.81
2022-08-26T04:06:31.782Z,89.16
2022-08-26T04:08:33.624Z,89.2
2022-08-26T04:10:34.895Z,89.22
2022-08-26T04:12:36.082Z,89.23
2022-08-26T04:14:37.123Z,89.57
2022-08-26T04:16:38.257Z,89.4
2022-08-26T04:18:42.104Z,89.28
2022-08-26T04:20:49.678Z,89.49
2022-08-26T04:22:42.413Z,90.27
2022-08-26T04:24:43.679Z,90.38
2022-08-26T04:26:44.963Z,90.17
2022-08-26T04:28:46.303Z,90.53
2022-08-26T04:30:48.184Z,90.65
2022-08-26T04:32:49.894Z,90.51
2022-08-26T04:34:50.998Z,89.85
2022-08-26T04:36:52.031Z,89.66
2022-08-26T04:38:53.223Z,89.78
2022-08-26T04:40:54.223Z,89.74
2022-08-26T04:42:55.369Z,89.56
2022-08-26T04:44:56.341Z,89.75
2022-08-26T04:46:57.758Z,89.46
2022-08-26T04:48:59.356Z,89.42
2022-08-26T04:51:00.994Z,89.41
2022-08-26T04:53:02.135Z,89.56
2022-08-26T04:55:03.512Z,89.71
2022-08-26T04:57:04.479Z,89.66
2022-08-26T04:59:05.475Z,89.46
2022-08-26T05:01:07.346Z,88.79
2022-08-26T05:03:10.435Z,88.4
2022-08-26T05:05:09.975Z,88.06
2022-08-26T05:07:11.781Z,88.06
2022-08-26T05:09:13.361Z,87.63
2022-08-26T05:11:14.286Z,87.54
2022-08-26T05:13:15.663Z,87.96
2022-08-26T05:17:18.437Z,87.53
2022-08-26T05:19:19.760Z,86.98
2022-08-26T05:23:29.937Z,84.66
2022-08-26T05:25:23.222Z,83.49
2022-08-26T05:27:24.429Z,83.24
2022-08-26T05:29:25.317Z,83.89
2022-08-26T05:31:26.465Z,83.57
2022-08-26T05:33:27.634Z,83.4
2022-08-26T05:35:28.725Z,82.44
2022-08-26T05:37:30.205Z,82
2022-08-26T05:39:31.839Z,82.95
2022-08-26T05:41:34.072Z,81.88
2022-08-26T05:45:36.139Z,79.12
2022-08-26T05:47:37.163Z,78.02
2022-08-26T05:49:43.778Z,77.2
2022-08-26T05:51:39.950Z,75.71
2022-08-26T05:53:43.848Z,73.87
2022-08-26T05:55:43.152Z,72.02
2022-08-26T05:57:44.195Z,71.41
2022-08-26T05:59:45.068Z,73
2022-08-26T06:01:46.364Z,74.85
2022-08-26T06:03:47.270Z,73.12
2022-08-26T06:05:48.652Z,71.6
2022-08-26T06:07:50.027Z,71.56
2022-08-26T06:09:51.656Z,70.51
2022-08-26T06:11:52.636Z,71.72
2022-08-26T06:13:53.587Z,72.32
2022-08-26T06:15:55.141Z,70.4
2022-08-26T06:17:56.208Z,70.96
2022-08-26T06:19:57.260Z,72.07
2022-08-26T06:21:58.999Z,72.05
2022-08-26T06:24:00.699Z,70.96
2022-08-26T06:26:01.953Z,70.57
2022-08-26T06:28:03.486Z,70.88
2022-08-26T06:30:04.446Z,70.43
2022-08-26T06:32:05.516Z,70.39
2022-08-26T06:34:10.664Z,69.45
2022-08-26T06:36:08.682Z,68.87
2022-08-26T06:38:10.180Z,66.89
2022-08-26T06:40:11.431Z,67.06
2022-08-26T06:42:12.404Z,67.73
2022-08-26T06:44:14.056Z,69.06
2022-08-26T06:46:15.528Z,68.79
2022-08-26T06:48:17.126Z,68.16
2022-08-26T06:50:18.516Z,68.7
2022-08-26T06:52:23.048Z,67.77
2022-08-26T06:54:20.898Z,69.9
2022-08-26T06:56:22.364Z,68.18
2022-08-26T06:58:23.863Z,67.29
2022-08-26T07:00:25.383Z,66.75
2022-08-26T07:04:27.873Z,66.22
2022-08-26T07:06:28.521Z,66.51
2022-08-26T07:08:30.254Z,66.59
2022-08-26T07:10:31.921Z,68.27
2022-08-26T07:12:33.411Z,66.42
2022-08-26T07:14:34.824Z,66.96
2022-08-26T07:16:36.193Z,66.59
2022-08-26T07:18:37.801Z,66.53
2022-08-26T07:20:38.746Z,64.75
2022-08-26T07:22:40.355Z,64.55
2022-08-26T07:26:43.110Z,62
2022-08-26T07:28:43.651Z,60.2
2022-08-26T07:30:45.184Z,60.56
2022-08-26T07:32:46.682Z,60.66
2022-08-26T07:34:48.404Z,59.11
2022-08-26T07:36:49.590Z,57.66
2022-08-26T07:38:50.617Z,59.51
2022-08-26T07:40:52.320Z,60.9
2022-08-26T07:42:53.143Z,58.96
2022-08-26T07:44:54.856Z,57.58
2022-08-26T07:46:56.358Z,58.89
2022-08-26T07:48:57.472Z,57.79
2022-08-26T07:50:58.912Z,55.67
2022-08-26T07:53:00.281Z,55.3
2022-08-26T07:55:01.972Z,55.91
2022-08-26T07:57:05.076Z,56.91
2022-08-26T07:59:13.356Z,57.06
2022-08-26T08:01:05.938Z,56
2022-08-26T08:03:07.088Z,56.2
2022-08-26T08:05:08.213Z,56.04
2022-08-26T08:07:11.633Z,55.71
2022-08-26T08:09:10.742Z,56.5
2022-08-26T08:11:12.345Z,55.1
2022-08-26T08:13:13.922Z,55.65
2022-08-26T08:15:14.758Z,54.62
2022-08-26T08:17:16.139Z,53.16
2022-08-26T08:19:17.028Z,53.22
2022-08-26T08:21:21.020Z,54.22
2022-08-26T08:23:19.638Z,53.62
2022-08-26T08:25:21.135Z,52.01
2022-08-26T08:27:23.916Z,52.3
2022-08-26T08:29:24.224Z,53.45
2022-08-26T08:31:45.340Z,52.76
2022-08-26T08:33:27.396Z,52.56
2022-08-26T08:35:28.847Z,53.73
2022-08-26T08:37:30.534Z,53.31
2022-08-26T08:39:31.322Z,53.85
2022-08-26T08:41:32.811Z,54.01
2022-08-26T08:43:35.116Z,55.23
2022-08-26T08:45:36.692Z,55.58
2022-08-26T08:47:36.443Z,54.91
2022-08-26T08:49:37.608Z,54.92
2022-08-26T08:51:38.796Z,54.56
2022-08-26T08:55:41.151Z,55.62
2022-08-26T08:57:42.373Z,55.52
2022-08-26T08:59:44.061Z,55.13
2022-08-26T09:01:44.971Z,53.97
2022-08-26T09:03:45.821Z,52.94
2022-08-26T09:04:29.455Z,52.77
2022-08-26T09:06:30.762Z,52.97
2022-08-26T09:08:32.250Z,52.95
2022-08-26T09:10:33.853Z,52.79
2022-08-26T09:12:35.192Z,53.89
2022-08-26T09:14:36.527Z,53.09
2022-08-26T09:18:39.141Z,50.49
2022-08-26T09:20:40.076Z,50.41
2022-08-26T09:22:41.002Z,51.2
2022-08-26T09:24:48.329Z,49.12
2022-08-26T09:26:43.438Z,46.89
2022-08-26T09:28:44.773Z,46.49
2022-08-26T09:30:46.162Z,46.13
2022-08-26T09:32:55.814Z,45.72
2022-08-26T09:34:48.030Z,46.99
2022-08-26T09:36:49.360Z,46.63
2022-08-26T09:38:50.575Z,45.87
2022-08-26T09:40:58.950Z,45.37
2022-08-26T09:42:52.930Z,45.06
2022-08-26T09:44:53.890Z,44.96
2022-08-26T09:46:55.553Z,45.75
2022-08-26T09:48:56.549Z,45.62
2022-08-26T09:50:57.889Z,45.86
2022-08-26T09:52:58.888Z,46.65
2022-08-26T09:54:59.836Z,47.07
2022-08-26T09:57:00.891Z,47.75
2022-08-26T09:59:02.326Z,47.33
2022-08-26T10:01:03.193Z,47.95
2022-08-26T10:03:04.352Z,48.99
2022-08-26T10:05:09.718Z,49.27
2022-08-26T10:07:07.199Z,49.85
2022-08-26T10:09:09.047Z,49.64
2022-08-26T10:13:10.781Z,50.68
2022-08-26T10:15:11.982Z,50.3
2022-08-26T10:17:13.423Z,50.91
2022-08-26T10:19:15.086Z,50.87
2022-08-26T10:21:17.801Z,50.22
2022-08-26T10:23:17.228Z,49.96
2022-08-26T10:25:18.169Z,49.9
2022-08-26T10:27:19.363Z,49.38
2022-08-26T10:31:21.337Z,49.99
2022-08-26T10:33:22.813Z,49.91
2022-08-26T10:35:24.175Z,49.41
2022-08-26T10:37:25.748Z,49.29
2022-08-26T10:39:27.383Z,48.58
2022-08-26T10:41:28.650Z,49.45
2022-08-26T10:43:30.224Z,49.97
2022-08-26T10:45:31.150Z,49.66
2022-08-26T10:47:32.651Z,48.98
2022-08-26T10:49:33.610Z,49.21
2022-08-26T10:51:35.247Z,47.45
2022-08-26T10:53:36.113Z,49.32
2022-08-26T10:55:37.239Z,46.79
2022-08-26T10:57:38.403Z,45.13
2022-08-26T10:59:39.920Z,44.83
2022-08-26T11:01:41.363Z,46.12
2022-08-26T11:03:42.471Z,45.08
2022-08-26T11:05:43.892Z,46.31
2022-08-26T11:07:44.758Z,45.95
2022-08-26T11:09:46.050Z,46.6
2022-08-26T11:13:48.779Z,48.64
2022-08-26T11:15:50.414Z,48.49
2022-08-26T11:17:51.401Z,48.2
2022-08-26T11:20:00.518Z,48.69
2022-08-26T11:23:55.399Z,49.51
2022-08-26T11:25:56.185Z,49.91
2022-08-26T11:27:57.918Z,50.67
2022-08-26T11:29:59.314Z,49.99
2022-08-26T11:32:00.435Z,50.39
2022-08-26T11:34:01.923Z,50.96
2022-08-26T11:36:11.570Z,50.54
2022-08-26T11:38:04.526Z,49.43
2022-08-26T11:40:05.466Z,49.95
2022-08-26T11:42:07.007Z,49.68
2022-08-26T11:44:08.576Z,49.11
2022-08-26T11:46:09.933Z,49.56
2022-08-26T11:48:10.785Z,50.31
2022-08-26T11:50:11.686Z,50.24
2022-08-26T11:54:13.758Z,49.86
2022-08-26T11:56:15.133Z,49.99
2022-08-26T11:58:16.883Z,49.33
2022-08-26T12:00:21.069Z,50.26
2022-08-26T12:02:20.226Z,49.54
2022-08-26T12:04:21.290Z,49.02
2022-08-26T12:06:22.943Z,48.59
2022-08-26T12:08:24.100Z,49.13
2022-08-26T12:12:26.534Z,48.51
2022-08-26T12:14:27.914Z,48.71
2022-08-26T12:16:29.038Z,48
2022-08-26T12:18:30.209Z,47.96
2022-08-26T12:20:31.172Z,45.7
2022-08-26T12:22:32.296Z,46.25
2022-08-26T12:24:33.899Z,45.79
2022-08-26T12:26:35.314Z,45.05
2022-08-26T12:28:36.931Z,44.48
2022-08-26T12:30:37.708Z,44.49
2022-08-26T12:32:39.331Z,44.59
2022-08-26T12:34:40.174Z,44.57
2022-08-26T12:36:41.081Z,43.86
2022-08-26T12:38:42.008Z,43.57
2022-08-26T12:40:43.042Z,43.49
2022-08-26T12:42:44.193Z,44.52
2022-08-26T12:44:53.024Z,42.11
2022-08-26T12:46:49.678Z,42.05
2022-08-26T12:48:47.591Z,41.05
2022-08-26T12:50:48.533Z,40.61
2022-08-26T12:52:49.854Z,40.37
2022-08-26T12:54:54.769Z,41.38
2022-08-26T12:56:52.733Z,40.64
2022-08-26T13:00:55.668Z,42.2
2022-08-26T13:02:56.776Z,43.2
2022-08-26T13:05:00.656Z,43.39
2022-08-26T13:06:58.839Z,44.01
2022-08-26T13:09:00.592Z,45.16
2022-08-26T13:11:01.819Z,46.03
2022-08-26T13:13:03.309Z,46.75
2022-08-26T13:15:04.657Z,48.53
2022-08-26T13:17:05.897Z,49.01
2022-08-26T13:19:10.128Z,48.86
2022-08-26T13:21:08.160Z,48.91
2022-08-26T13:23:08.950Z,50.38
2022-08-26T13:25:10.230Z,49.92
2022-08-26T13:27:12.023Z,49.91
2022-08-26T13:29:13.043Z,49.92
2022-08-26T13:33:16.018Z,50.35
2022-08-26T13:35:17.330Z,50.32
2022-08-26T13:37:18.268Z,50.09
2022-08-26T13:39:19.091Z,50.13
2022-08-26T13:43:21.385Z,49.62
2022-08-26T13:45:22.694Z,51.14
2022-08-26T13:47:23.807Z,50.08
2022-08-26T13:49:25.280Z,50.08
2022-08-26T13:51:26.463Z,49.75
2022-08-26T13:53:27.453Z,50.8
2022-08-26T13:55:28.758Z,51.68
2022-08-26T13:57:30.295Z,51.75
2022-08-26T13:59:31.252Z,52.51
2022-08-26T14:01:32.764Z,51.9
2022-08-26T14:03:34.549Z,50.9
2022-08-26T14:05:35.410Z,50.73
2022-08-26T14:07:36.924Z,50.9
2022-08-26T14:09:38.549Z,50.1
2022-08-26T14:11:50.674Z,50.41
2022-08-26T14:13:41.419Z,50.47
2022-08-26T14:15:42.978Z,49.74
2022-08-26T14:17:43.940Z,50.24
2022-08-26T14:19:45.480Z,50.49
2022-08-26T14:21:46.429Z,51.08
2022-08-26T14:25:48.758Z,52.25
2022-08-26T14:27:50.497Z,51.89
2022-08-26T14:29:51.675Z,51.76
2022-08-26T14:31:53.008Z,53.29
2022-08-26T14:33:54.336Z,53.44
2022-08-26T14:35:55.290Z,54.19
2022-08-26T14:37:56.375Z,54.52
2022-08-26T14:39:57.229Z,54.43
2022-08-26T14:41:58.161Z,55.45
2022-08-26T14:43:59.514Z,56.52
2022-08-26T14:46:01.151Z,56.5
2022-08-26T14:48:02.347Z,58.12
2022-08-26T14:50:04.015Z,58.18
2022-08-26T14:52:05.428Z,58.4
2022-08-26T14:54:07.236Z,57.88
2022-08-26T14:56:08.331Z,58.01
2022-08-26T14:58:09.888Z,58.04
2022-08-26T15:00:11.337Z,58.8
2022-08-26T15:02:13.647Z,58.09
2022-08-26T15:04:13.628Z,57.63
2022-08-26T15:06:15.407Z,57.28
2022-08-26T15:08:16.215Z,58.06
2022-08-26T15:10:17.235Z,58.66
2022-08-26T15:14:20.036Z,59.2
2022-08-26T15:16:20.931Z,59.16
2022-08-26T15:18:22.176Z,59.33
2022-08-26T15:20:23.466Z,59.35
2022-08-26T15:22:24.554Z,59.35
2022-08-26T15:24:26.025Z,59.65
2022-08-26T15:26:27.299Z,61.13
2022-08-26T15:28:28.232Z,62.16
2022-08-26T15:30:29.718Z,60.36
2022-08-26T15:32:30.978Z,60.87
2022-08-26T15:34:32.481Z,61.1
2022-08-26T15:36:33.887Z,60.5
2022-08-26T15:38:35.635Z,59.87
2022-08-26T15:40:37.387Z,57.8
2022-08-26T15:42:39.041Z,56.64
2022-08-26T15:44:40.321Z,56.13
2022-08-26T15:46:41.836Z,54.9
2022-08-26T15:48:42.917Z,54.04
2022-08-26T15:50:44.502Z,53.38
2022-08-26T15:51:28.177Z,54.22
2022-08-26T15:53:29.024Z,53.11
2022-08-26T15:55:30.051Z,53.5
2022-08-26T15:57:31.220Z,53.21
2022-08-26T16:01:33.781Z,52.61
2022-08-26T16:03:35.092Z,51.12
2022-08-26T16:05:36.197Z,51.18
2022-08-26T16:07:37.585Z,51.17
2022-08-26T16:09:39.216Z,51.05
2022-08-26T16:11:40.027Z,50.95
2022-08-26T16:13:41.084Z,51.51
2022-08-26T16:15:42.068Z,51.6
2022-08-26T16:17:43.716Z,51.26
2022-08-26T16:19:45.395Z,51.31
2022-08-26T16:21:46.583Z,51.9
2022-08-26T16:23:47.355Z,51.72
2022-08-26T16:25:48.995Z,52.43
2022-08-26T16:27:49.869Z,52.27
2022-08-26T16:29:50.802Z,52.71
2022-08-26T16:31:51.864Z,53.09
2022-08-26T16:33:53.434Z,52.41
2022-08-26T16:35:54.352Z,53.06
2022-08-26T16:37:55.428Z,51.77
2022-08-26T16:39:56.612Z,53.18
2022-08-26T16:41:58.264Z,53.08
2022-08-26T16:43:59.925Z,52.3
2022-08-26T16:46:01.656Z,53.51
2022-08-26T16:50:03.699Z,53.75
2022-08-26T16:52:05.398Z,54.18
2022-08-26T16:54:07.286Z,53.05
2022-08-26T16:56:08.878Z,53.04
2022-08-26T17:00:11.566Z,52.38
2022-08-26T17:02:13.255Z,52.27
2022-08-26T17:04:14.923Z,51.69
2022-08-26T17:06:15.879Z,53.77
2022-08-26T17:08:21.894Z,65.42
2022-08-26T17:10:17.738Z,67.75
2022-08-26T17:12:18.615Z,66.6
2022-08-26T17:14:20.008Z,62.59
2022-08-26T17:16:24.575Z,52.23
2022-08-26T17:18:22.110Z,51.4
2022-08-26T17:20:23.163Z,51.4
2022-08-26T17:22:24.281Z,51.39
2022-08-26T17:24:25.512Z,51.75
2022-08-26T17:26:27.218Z,52.5
2022-08-26T17:28:28.937Z,52.38
2022-08-26T17:30:30.984Z,52.28
2022-08-26T17:32:31.846Z,53.24
2022-08-26T17:34:33.448Z,53.25
2022-08-26T17:36:34.695Z,53.16
2022-08-26T17:42:38.288Z,52.82
2022-08-26T17:44:39.574Z,52.79
2022-08-26T17:46:40.908Z,53.24
2022-08-26T17:48:42.455Z,52.78
2022-08-26T17:50:45.488Z,53.16
2022-08-26T17:52:45.276Z,53.35
2022-08-26T17:54:46.167Z,53.72
2022-08-26T17:56:47.894Z,54.21
2022-08-26T17:58:51.535Z,53.89
2022-08-26T18:00:50.393Z,53.86
2022-08-26T18:02:52.117Z,53.81
2022-08-26T18:04:53.944Z,53
2022-08-26T18:06:54.978Z,53.98
2022-08-26T18:08:56.394Z,53.69
2022-08-26T18:10:57.459Z,54.2
2022-08-26T18:12:58.918Z,55.52
2022-08-26T18:14:59.975Z,59.98
2022-08-26T18:17:01.261Z,62.5
2022-08-26T18:21:04.648Z,65.15
2022-08-26T18:23:05.844Z,66.69
2022-08-26T18:25:07.485Z,66.38
2022-08-26T18:27:08.777Z,64.66
2022-08-26T18:29:10.260Z,62.82
2022-08-26T18:31:11.773Z,61.98
2022-08-26T18:33:13.304Z,62
2022-08-26T18:35:14.805Z,62.18
2022-08-26T18:37:16.552Z,62.93
2022-08-26T18:41:18.886Z,73.51
2022-08-26T18:43:20.137Z,80.34
2022-08-26T18:45:21.199Z,81.85
2022-08-26T18:47:22.399Z,86.19
2022-08-26T18:49:23.893Z,85.47
2022-08-26T18:51:24.845Z,86.49
2022-08-26T18:53:26.007Z,86.76
2022-08-26T18:55:26.904Z,86.47
2022-08-26T18:57:28.616Z,87.69
2022-08-26T18:59:30.259Z,89.09
2022-08-26T19:01:30.923Z,89.55
2022-08-26T19:03:32.268Z,88.77
2022-08-26T19:05:34.051Z,87.29
2022-08-26T19:07:39.042Z,89.22
2022-08-26T19:09:36.862Z,90.23
2022-08-26T19:11:38.365Z,89.72
2022-08-26T19:13:38.697Z,87.6
2022-08-26T19:15:39.795Z,87.11
2022-08-26T19:17:41.158Z,86.86
2022-08-26T19:19:42.459Z,88.31
2022-08-26T19:23:45.642Z,89.99
2022-08-26T19:25:46.645Z,89.18
2022-08-26T19:27:48.178Z,91.52
2022-08-26T19:29:49.906Z,92.06
2022-08-26T19:31:50.782Z,91.47
2022-08-26T19:33:52.030Z,92.63
2022-08-26T19:35:53.677Z,82.73
2022-08-26T19:37:54.628Z,82.51
2022-08-26T19:39:55.751Z,87.75
2022-08-26T19:41:57.494Z,88.84
2022-08-26T19:43:59.126Z,89.4
2022-08-26T19:46:00.683Z,89.71
2022-08-26T19:48:02.042Z,91.07
2022-08-26T19:50:03.458Z,91.93
2022-08-26T19:56:07.962Z,91.92
2022-08-26T19:58:09.736Z,92.82
2022-08-26T20:00:11.033Z,93.14
2022-08-26T20:02:12.861Z,93.55
2022-08-26T20:06:15.095Z,93.8
2022-08-26T20:08:21.819Z,93.98
2022-08-26T20:10:18.036Z,93.88
2022-08-26T20:12:19.792Z,94.07
2022-08-26T20:14:23.037Z,94.11
2022-08-26T20:16:23.073Z,94.01
2022-08-26T20:18:24.794Z,94
2022-08-26T20:20:33.988Z,93.5
2022-08-26T20:22:26.733Z,92.96
2022-08-26T20:24:27.585Z,93.31
2022-08-26T20:26:28.800Z,93.69
2022-08-26T20:28:30.174Z,94.22
2022-08-26T20:30:31.399Z,94.78
2022-08-26T20:32:35.446Z,94.51
2022-08-26T20:34:34.283Z,94.77
2022-08-26T20:36:35.319Z,94.74
2022-08-26T20:38:36.513Z,94.57
2022-08-26T20:40:38.090Z,94.66
2022-08-26T20:42:38.866Z,94.32
2022-08-26T20:44:40.233Z,94.45
2022-08-26T20:46:41.823Z,94.43
2022-08-26T20:48:43.325Z,94.8
2022-08-26T20:50:44.929Z,94.81
2022-08-26T20:52:46.587Z,94.98
2022-08-26T20:54:48.238Z,94.96
2022-08-26T20:56:49.167Z,95.15
2022-08-26T20:58:50.415Z,94.74
2022-08-26T21:00:51.873Z,95.24
2022-08-26T21:02:53.539Z,95.25
2022-08-26T21:04:54.534Z,95.16
2022-08-26T21:06:55.460Z,94.84
2022-08-26T21:08:57.260Z,94.17
2022-08-26T21:10:59.033Z,94.83
2022-08-26T21:13:00.887Z,94.54
2022-08-26T21:15:01.805Z,94.3
2022-08-26T21:17:03.601Z,94.53
2022-08-26T21:19:05.092Z,94.46
2022-08-26T21:21:06.618Z,94.2
2022-08-26T21:23:07.669Z,94.14
2022-08-26T21:25:09.362Z,93.25
2022-08-26T21:27:11.194Z,93.79
2022-08-26T21:31:14.681Z,94.16
2022-08-26T21:33:15.659Z,94.24
2022-08-26T21:37:18.408Z,94.43
2022-08-26T21:39:19.802Z,94.58
2022-08-26T21:41:21.153Z,94.46
2022-08-26T21:43:28.103Z,94.66
2022-08-26T21:47:25.422Z,95.01
2022-08-26T21:49:26.430Z,94.85
2022-08-26T21:51:28.017Z,95.23
2022-08-26T21:53:29.788Z,95.1
2022-08-26T21:55:31.205Z,95.25
2022-08-26T21:57:32.239Z,95.34
2022-08-26T21:59:33.702Z,95.18
2022-08-26T22:01:35.548Z,95.48
2022-08-26T22:03:46.773Z,95.58
2022-08-26T22:05:38.209Z,95.48
2022-08-26T22:07:39.580Z,95.66
2022-08-26T22:09:40.672Z,96.03
2022-08-26T22:11:42.471Z,96.25
2022-08-26T22:13:44.081Z,96.37
2022-08-26T22:15:45.586Z,96.51
2022-08-26T22:19:48.038Z,96.73
2022-08-26T22:21:49.321Z,96.72
2022-08-26T22:23:50.831Z,96.79
2022-08-26T22:25:52.644Z,96.84
2022-08-26T22:29:55.176Z,96.97
2022-08-26T22:31:56.278Z,96.94
2022-08-26T22:33:57.249Z,96.9
2022-08-26T22:35:58.170Z,97.14
2022-08-26T22:36:43.275Z,96.97
2022-08-26T22:38:43.559Z,96.89
2022-08-26T22:40:45.171Z,97.01
2022-08-26T22:42:55.517Z,96.98
2022-08-26T22:44:47.943Z,97.01
2022-08-26T22:46:48.849Z,96.99
2022-08-26T22:48:50.314Z,96.96
2022-08-26T22:50:50.867Z,96.99
2022-08-26T22:52:52.456Z,97.08
2022-08-26T22:56:54.983Z,97.1
2022-08-26T22:58:56.747Z,97.23
2022-08-26T23:00:59.283Z,97.28
2022-08-26T23:02:59.443Z,97.3
2022-08-26T23:07:02.283Z,97.32
2022-08-26T23:09:03.765Z,97.32
2022-08-26T23:11:04.644Z,97.33
2022-08-26T23:13:06.250Z,97.33
2022-08-26T23:15:07.431Z,97.29
2022-08-26T23:17:08.842Z,97.28
2022-08-26T23:19:10.570Z,97.28
2022-08-26T23:21:12.243Z,97.17
2022-08-26T23:23:13.246Z,97.17
2022-08-26T23:25:14.709Z,97.01
2022-08-26T23:27:16.376Z,97.02
2022-08-26T23:29:18.053Z,96.89
2022-08-26T23:31:19.841Z,96.86
2022-08-26T23:33:21.630Z,96.67
2022-08-26T23:35:22.534Z,96.63
2022-08-26T23:37:23.492Z,96.55
2022-08-26T23:39:24.550Z,96.49
2022-08-26T23:41:25.690Z,96.43
2022-08-26T23:43:27.046Z,96.49
2022-08-26T23:45:28.161Z,96.47
2022-08-26T23:47:29.135Z,96.53
2022-08-26T23:49:30.441Z,96.61
2022-08-26T23:51:31.746Z,96.64
2022-08-26T23:55:34.675Z,96.76
2022-08-26T23:57:35.653Z,96.84
2022-08-26T23:59:36.553Z,96.96
